createdAt,value
2022-08-22T00:01:50.789Z,5.78
2022-08-22T00:03:10.286Z,6.20
2022-08-22T00:03:11.174Z,5.70
2022-08-22T00:04:29.388Z,5.35
2022-08-22T00:07:07.570Z,5.88
2022-08-22T00:09:41.356Z,5.80
2022-08-22T00:12:19.795Z,6.53
2022-08-22T00:14:57.803Z,5.95
2022-08-22T00:17:37.211Z,6.53
2022-08-22T00:20:14.155Z,6.00
2022-08-22T00:22:49.729Z,5.88
2022-08-22T00:25:38.166Z,5.90
2022-08-22T00:28:11.589Z,6.13
2022-08-22T00:30:46.614Z,6.10
2022-08-22T00:33:23.030Z,5.88
2022-08-22T00:36:00.949Z,6.03
2022-08-22T00:38:34.713Z,6.07
2022-08-22T00:41:07.950Z,6.70
2022-08-22T00:43:58.318Z,5.65
2022-08-22T00:47:02.584Z,6.00
2022-08-22T00:49:46.456Z,6.72
2022-08-22T00:52:46.876Z,6.30
2022-08-22T00:55:29.052Z,6.38
2022-08-22T00:58:23.853Z,5.93
2022-08-22T01:00:55.238Z,5.82
2022-08-22T01:03:49.672Z,5.70
2022-08-22T01:06:25.240Z,6.50
2022-08-22T01:09:05.296Z,5.88
2022-08-22T01:12:01.140Z,6.75
2022-08-22T01:14:39.514Z,5.20
2022-08-22T01:17:47.479Z,6.88
2022-08-22T01:20:51.692Z,6.32
2022-08-22T01:23:48.613Z,6.15
2022-08-22T01:27:14.705Z,5.18
2022-08-22T01:30:16.349Z,5.68
2022-08-22T01:33:26.660Z,5.70
2022-08-22T01:36:36.470Z,5.78
2022-08-22T01:39:37.784Z,6.30
2022-08-22T01:42:29.479Z,6.07
2022-08-22T01:45:19.985Z,6.30
2022-08-22T01:47:56.539Z,6.25
2022-08-22T01:50:45.777Z,6.38
2022-08-22T01:53:22.868Z,5.93
2022-08-22T01:56:00.167Z,5.68
2022-08-22T01:58:30.563Z,5.78
2022-08-22T02:01:13.958Z,6.60
2022-08-22T02:03:57.457Z,6.28
2022-08-22T02:06:35.257Z,6.65
2022-08-22T02:09:11.658Z,6.75
2022-08-22T02:11:46.091Z,6.35
2022-08-22T02:14:34.286Z,5.93
2022-08-22T02:17:15.532Z,6.35
2022-08-22T02:19:51.386Z,5.53
2022-08-22T02:22:30.409Z,5.30
2022-08-22T02:25:09.810Z,6.10
2022-08-22T02:27:46.576Z,5.97
2022-08-22T02:30:18.148Z,5.80
2022-08-22T02:33:04.244Z,5.55
2022-08-22T02:35:38.053Z,6.00
2022-08-22T02:38:22.361Z,6.28
2022-08-22T02:41:00.705Z,4.63
2022-08-22T02:43:37.453Z,5.68
2022-08-22T02:46:17.740Z,5.85
2022-08-22T02:48:54.726Z,5.80
2022-08-22T02:51:31.113Z,6.32
2022-08-22T02:54:08.492Z,5.80
2022-08-22T02:56:42.995Z,6.15
2022-08-22T02:59:23.718Z,6.45
2022-08-22T03:01:52.407Z,6.38
2022-08-22T03:04:46.547Z,6.38
2022-08-22T03:07:24.189Z,5.90
2022-08-22T03:10:00.850Z,6.47
2022-08-22T03:12:34.269Z,6.65
2022-08-22T03:15:09.772Z,6.15
2022-08-22T03:17:47.488Z,6.43
2022-08-22T03:20:20.878Z,6.85
2022-08-22T03:22:54.854Z,6.38
2022-08-22T03:25:33.122Z,6.07
2022-08-22T03:28:07.157Z,6.30
2022-08-22T03:30:41.320Z,5.93
2022-08-22T03:33:18.950Z,7.18
2022-08-22T03:36:02.467Z,5.93
2022-08-22T03:38:49.758Z,6.25
2022-08-22T03:41:45.405Z,6.03
2022-08-22T03:44:46.828Z,6.00
2022-08-22T03:47:38.121Z,6.05
2022-08-22T03:50:20.536Z,6.40
2022-08-22T03:56:22.450Z,6.00
2022-08-22T03:59:28.784Z,6.45
2022-08-22T04:02:42.878Z,6.70
2022-08-22T04:05:43.969Z,6.18
2022-08-22T04:08:44.710Z,6.20
2022-08-22T04:11:31.404Z,6.43
2022-08-22T04:14:32.174Z,6.25
2022-08-22T04:17:17.619Z,5.97
2022-08-22T04:20:16.893Z,5.82
2022-08-22T04:23:16.010Z,6.03
2022-08-22T04:25:48.472Z,6.18
2022-08-22T04:28:23.316Z,5.82
2022-08-22T04:30:57.480Z,5.55
2022-08-22T04:33:28.486Z,5.57
2022-08-22T04:36:04.646Z,5.45
2022-08-22T04:38:39.206Z,5.80
2022-08-22T04:41:13.845Z,5.93
2022-08-22T04:43:51.488Z,5.47
2022-08-22T04:46:26.227Z,5.90
2022-08-22T04:49:08.580Z,5.60
2022-08-22T04:51:41.942Z,5.68
2022-08-22T04:54:29.044Z,5.50
2022-08-22T04:57:10.265Z,5.75
2022-08-22T04:59:38.501Z,6.05
2022-08-22T05:02:10.689Z,5.78
2022-08-22T05:07:13.492Z,5.43
2022-08-22T05:09:45.942Z,5.53
2022-08-22T05:12:20.891Z,5.93
2022-08-22T05:14:54.462Z,6.03
2022-08-22T05:17:25.972Z,5.57
2022-08-22T05:19:57.334Z,5.70
2022-08-22T05:22:32.070Z,6.50
2022-08-22T05:25:03.949Z,5.90
2022-08-22T05:27:36.012Z,6.15
2022-08-22T05:30:12.668Z,6.10
2022-08-22T05:32:50.197Z,6.63
2022-08-22T05:35:20.040Z,5.70
2022-08-22T05:37:53.254Z,6.10
2022-08-22T05:40:24.466Z,6.50
2022-08-22T05:42:53.634Z,6.43
2022-08-22T05:45:23.527Z,6.35
2022-08-22T05:47:56.661Z,6.43
2022-08-22T05:50:35.192Z,6.15
2022-08-22T05:53:08.653Z,6.55
2022-08-22T05:55:43.870Z,6.40
2022-08-22T05:58:47.185Z,6.57
2022-08-22T06:01:27.590Z,7.10
2022-08-22T06:04:07.574Z,6.28
2022-08-22T06:06:40.837Z,6.95
2022-08-22T06:09:17.956Z,8.05
2022-08-22T06:11:52.255Z,8.15
2022-08-22T06:14:30.074Z,8.52
2022-08-22T06:17:07.531Z,8.20
2022-08-22T06:19:39.627Z,7.65
2022-08-22T06:22:08.164Z,8.05
2022-08-22T06:24:40.101Z,8.32
2022-08-22T06:27:12.174Z,8.07
2022-08-22T06:29:45.801Z,8.40
2022-08-22T06:32:16.924Z,9.02
2022-08-22T06:35:08.065Z,8.15
2022-08-22T06:37:39.826Z,8.50
2022-08-22T06:40:13.368Z,8.80
2022-08-22T06:42:45.465Z,9.02
2022-08-22T06:45:18.545Z,8.93
2022-08-22T06:47:52.212Z,9.50
2022-08-22T06:50:26.012Z,9.18
2022-08-22T06:53:00.484Z,8.70
2022-08-22T06:55:31.277Z,9.45
2022-08-22T06:58:03.916Z,9.50
2022-08-22T07:00:34.589Z,8.93
2022-08-22T07:03:09.540Z,8.77
2022-08-22T07:05:41.204Z,9.13
2022-08-22T07:08:12.076Z,8.07
2022-08-22T07:10:45.117Z,8.25
2022-08-22T07:13:16.738Z,8.27
2022-08-22T07:15:53.397Z,8.48
2022-08-22T07:18:27.521Z,8.98
2022-08-22T07:20:59.250Z,8.07
2022-08-22T07:23:33.869Z,8.88
2022-08-22T07:26:15.353Z,8.00
2022-08-22T07:28:51.581Z,6.53
2022-08-22T07:31:34.547Z,5.85
2022-08-22T07:34:15.553Z,6.60
2022-08-22T07:36:50.738Z,5.70
2022-08-22T07:39:26.356Z,4.97
2022-08-22T07:42:06.838Z,5.10
2022-08-22T07:44:43.369Z,4.82
2022-08-22T07:47:15.578Z,5.13
2022-08-22T07:49:52.749Z,4.22
2022-08-22T07:52:22.485Z,3.70
2022-08-22T07:54:58.152Z,4.45
2022-08-22T07:57:31.606Z,4.63
2022-08-22T08:00:01.544Z,4.70
2022-08-22T08:02:30.038Z,5.60
2022-08-22T08:05:00.680Z,4.75
2022-08-22T08:07:32.140Z,4.38
2022-08-22T08:10:07.984Z,4.05
2022-08-22T08:13:01.704Z,4.30
2022-08-22T08:15:32.871Z,4.20
2022-08-22T08:18:05.274Z,3.95
2022-08-22T08:20:36.007Z,4.50
2022-08-22T08:23:05.203Z,4.35
2022-08-22T08:25:49.063Z,4.07
2022-08-22T08:28:35.060Z,4.32
2022-08-22T08:31:08.537Z,4.30
2022-08-22T08:33:40.200Z,4.00
2022-08-22T08:36:23.286Z,3.45
2022-08-22T08:38:58.520Z,2.88
2022-08-22T08:42:01.872Z,3.10
2022-08-22T08:44:53.824Z,2.55
2022-08-22T08:47:33.725Z,2.58
2022-08-22T08:50:29.016Z,2.88
2022-08-22T08:53:37.042Z,2.72
2022-08-22T08:56:11.228Z,2.70
2022-08-22T08:58:47.770Z,2.88
2022-08-22T09:01:34.786Z,2.80
2022-08-22T09:04:34.097Z,2.90
2022-08-22T09:07:22.369Z,2.65
2022-08-22T09:10:11.267Z,2.92
2022-08-22T09:16:14.142Z,3.40
2022-08-22T09:19:10.366Z,3.08
2022-08-22T09:22:14.507Z,2.95
2022-08-22T09:25:01.112Z,3.45
2022-08-22T09:27:38.686Z,2.88
2022-08-22T09:30:11.650Z,2.67
2022-08-22T09:32:47.480Z,2.85
2022-08-22T09:35:29.046Z,2.05
2022-08-22T09:38:34.640Z,3.00
2022-08-22T09:41:24.566Z,2.42
2022-08-22T09:44:08.618Z,2.88
2022-08-22T09:46:53.326Z,3.10
2022-08-22T09:49:28.649Z,2.95
2022-08-22T09:52:15.717Z,3.08
2022-08-22T09:55:04.251Z,2.50
2022-08-22T09:57:42.778Z,3.20
2022-08-22T10:00:22.311Z,2.80
2022-08-22T10:03:02.152Z,3.10
2022-08-22T10:05:35.281Z,2.53
2022-08-22T10:08:20.892Z,2.70
2022-08-22T10:11:11.717Z,3.08
2022-08-22T10:13:57.268Z,3.88
2022-08-22T10:16:54.228Z,2.88
2022-08-22T10:19:28.459Z,2.85
2022-08-22T10:22:29.815Z,2.72
2022-08-22T10:25:18.706Z,3.08
2022-08-22T10:28:11.971Z,2.88
2022-08-22T10:30:51.576Z,2.60
2022-08-22T10:33:29.215Z,2.33
2022-08-22T10:36:04.983Z,2.42
2022-08-22T10:38:46.493Z,2.45
2022-08-22T10:41:28.472Z,2.53
2022-08-22T10:44:04.131Z,2.63
2022-08-22T10:46:37.707Z,2.47
2022-08-22T10:49:14.341Z,2.28
2022-08-22T10:51:50.219Z,2.40
2022-08-22T10:57:09.475Z,2.28
2022-08-22T10:59:46.144Z,2.03
2022-08-22T11:02:34.998Z,2.10
2022-08-22T11:05:27.328Z,1.98
2022-08-22T11:08:08.173Z,1.90
2022-08-22T11:11:05.359Z,2.40
2022-08-22T11:13:42.342Z,1.70
2022-08-22T11:16:20.390Z,1.60
2022-08-22T11:19:14.580Z,2.15
2022-08-22T11:21:51.144Z,1.50
2022-08-22T11:24:56.431Z,1.33
2022-08-22T11:27:38.356Z,1.55
2022-08-22T11:30:18.346Z,1.60
2022-08-22T11:33:11.498Z,1.77
2022-08-22T11:35:45.452Z,1.50
2022-08-22T11:38:28.051Z,1.77
2022-08-22T11:41:05.054Z,1.83
2022-08-22T11:43:47.418Z,1.80
2022-08-22T11:46:23.226Z,2.00
2022-08-22T11:49:06.470Z,1.88
2022-08-22T11:51:57.257Z,1.70
2022-08-22T11:54:33.513Z,1.60
2022-08-22T11:57:07.614Z,1.48
2022-08-22T11:59:54.913Z,1.80
2022-08-22T12:02:32.590Z,1.50
2022-08-22T12:05:07.573Z,1.60
2022-08-22T12:07:40.280Z,1.92
2022-08-22T12:10:15.601Z,1.95
2022-08-22T12:12:57.164Z,1.73
2022-08-22T12:15:34.309Z,1.80
2022-08-22T12:18:34.659Z,1.50
2022-08-22T12:21:41.003Z,1.40
2022-08-22T12:24:33.887Z,1.70
2022-08-22T12:27:30.407Z,1.58
2022-08-22T12:30:13.788Z,1.63
2022-08-22T12:33:05.781Z,2.00
2022-08-22T12:35:46.946Z,1.67
2022-08-22T12:38:39.549Z,1.85
2022-08-22T12:41:40.033Z,1.85
2022-08-22T12:44:32.135Z,1.77
2022-08-22T12:47:14.933Z,1.67
2022-08-22T12:50:06.338Z,1.58
2022-08-22T12:52:51.928Z,1.73
2022-08-22T12:55:32.674Z,1.65
2022-08-22T12:58:08.513Z,1.65
2022-08-22T13:00:40.180Z,2.35
2022-08-22T13:03:12.925Z,1.70
2022-08-22T13:05:45.833Z,1.70
2022-08-22T13:08:31.610Z,1.50
2022-08-22T13:11:02.864Z,2.15
2022-08-22T13:13:37.340Z,1.77
2022-08-22T13:16:09.265Z,2.00
2022-08-22T13:18:53.545Z,1.70
2022-08-22T13:21:36.267Z,1.95
2022-08-22T13:24:10.795Z,2.10
2022-08-22T13:26:49.148Z,2.15
2022-08-22T13:29:26.013Z,1.77
2022-08-22T13:31:59.017Z,1.77
2022-08-22T13:37:12.497Z,1.70
2022-08-22T13:39:46.053Z,2.85
2022-08-22T13:42:20.365Z,1.85
2022-08-22T13:45:02.615Z,1.80
2022-08-22T13:50:08.558Z,2.35
2022-08-22T13:52:52.474Z,1.40
2022-08-22T13:55:30.621Z,1.30
2022-08-22T13:58:07.544Z,1.90
2022-08-22T14:01:16.759Z,1.73
2022-08-22T14:03:49.868Z,1.58
2022-08-22T14:06:41.236Z,1.73
2022-08-22T14:09:30.693Z,1.45
2022-08-22T14:12:11.925Z,1.90
2022-08-22T14:14:42.970Z,1.70
2022-08-22T14:17:18.078Z,1.58
2022-08-22T14:19:59.088Z,1.75
2022-08-22T14:25:03.380Z,1.70
2022-08-22T14:27:36.763Z,1.63
2022-08-22T14:30:16.031Z,1.67
2022-08-22T14:32:49.109Z,1.60
2022-08-22T14:35:34.858Z,1.30
2022-08-22T14:38:21.608Z,1.40
2022-08-22T14:41:03.219Z,1.77
2022-08-22T14:43:49.244Z,1.70
2022-08-22T14:46:26.707Z,1.88
2022-08-22T14:49:14.640Z,1.40
2022-08-22T14:51:51.123Z,1.70
2022-08-22T14:54:21.989Z,1.85
2022-08-22T14:56:53.187Z,1.73
2022-08-22T15:02:04.826Z,1.70
2022-08-22T15:04:37.983Z,1.85
2022-08-22T15:07:08.206Z,1.92
2022-08-22T15:09:41.608Z,1.90
2022-08-22T15:12:22.461Z,1.85
2022-08-22T15:14:54.346Z,2.17
2022-08-22T15:17:44.459Z,1.55
2022-08-22T15:20:28.165Z,1.80
2022-08-22T15:22:59.068Z,1.60
2022-08-22T15:25:31.275Z,1.48
2022-08-22T15:28:05.289Z,1.85
2022-08-22T15:30:44.262Z,1.58
2022-08-22T15:33:19.069Z,1.58
2022-08-22T15:35:47.655Z,1.60
2022-08-22T15:38:29.817Z,1.65
2022-08-22T15:41:18.045Z,1.40
2022-08-22T15:43:49.522Z,1.58
2022-08-22T15:46:29.784Z,1.48
2022-08-22T15:49:02.396Z,1.40
2022-08-22T15:51:39.309Z,1.27
2022-08-22T15:54:16.298Z,1.40
2022-08-22T15:57:16.004Z,1.42
2022-08-22T15:59:55.196Z,1.42
2022-08-22T16:02:34.866Z,1.40
2022-08-22T16:05:23.724Z,1.30
2022-08-22T16:08:04.126Z,1.10
2022-08-22T16:10:38.057Z,1.80
2022-08-22T16:13:13.099Z,1.20
2022-08-22T16:16:00.892Z,1.50
2022-08-22T16:19:14.547Z,1.30
2022-08-22T16:22:14.042Z,1.40
2022-08-22T16:25:10.371Z,1.42
2022-08-22T16:27:52.971Z,1.15
2022-08-22T16:30:34.264Z,1.30
2022-08-22T16:33:02.392Z,1.20
2022-08-22T16:36:22.133Z,1.50
2022-08-22T16:38:54.113Z,1.20
2022-08-22T16:41:41.864Z,1.40
2022-08-22T16:44:41.149Z,1.25
2022-08-22T16:47:15.962Z,1.30
2022-08-22T16:50:05.932Z,1.40
2022-08-22T16:53:02.056Z,1.40
2022-08-22T16:56:00.343Z,1.58
2022-08-22T16:59:03.316Z,1.30
2022-08-22T17:02:11.138Z,1.10
2022-08-22T17:04:46.426Z,1.35
2022-08-22T17:07:24.541Z,1.60
2022-08-22T17:10:18.502Z,2.00
2022-08-22T17:13:02.254Z,2.22
2022-08-22T17:15:36.156Z,1.52
2022-08-22T17:18:19.476Z,1.30
2022-08-22T17:20:53.717Z,1.05
2022-08-22T17:23:41.387Z,1.45
2022-08-22T17:26:25.883Z,2.03
2022-08-22T17:29:05.349Z,2.42
2022-08-22T17:31:43.077Z,2.22
2022-08-22T17:34:24.385Z,1.80
2022-08-22T17:37:03.177Z,1.90
2022-08-22T17:39:46.594Z,1.67
2022-08-22T17:42:35.077Z,1.73
2022-08-22T17:45:11.753Z,1.35
2022-08-22T17:47:45.088Z,1.40
2022-08-22T17:50:20.980Z,1.50
2022-08-22T17:52:53.867Z,1.55
2022-08-22T17:55:27.608Z,1.45
2022-08-22T17:58:02.720Z,1.70
2022-08-22T18:00:34.722Z,1.45
2022-08-22T18:03:08.800Z,1.77
2022-08-22T18:05:46.899Z,1.50
2022-08-22T18:11:19.973Z,1.73
2022-08-22T18:13:54.766Z,1.83
2022-08-22T18:16:29.428Z,2.15
2022-08-22T18:19:05.017Z,2.10
2022-08-22T18:21:36.562Z,1.95
2022-08-22T18:24:19.660Z,1.58
2022-08-22T18:26:59.197Z,1.80
2022-08-22T18:29:32.210Z,1.65
2022-08-22T18:32:11.047Z,1.63
2022-08-22T18:34:46.150Z,1.63
2022-08-22T18:37:21.720Z,1.95
2022-08-22T18:39:56.464Z,1.63
2022-08-22T18:42:30.874Z,1.60
2022-08-22T18:44:58.749Z,1.50
2022-08-22T18:47:32.576Z,1.50
2022-08-22T18:50:02.401Z,1.80
2022-08-22T18:52:38.756Z,1.30
2022-08-22T18:55:25.276Z,1.40
2022-08-22T18:58:23.639Z,1.67
2022-08-22T19:01:24.715Z,1.23
2022-08-22T19:04:18.510Z,1.50
2022-08-22T19:06:59.640Z,1.38
2022-08-22T19:09:59.172Z,1.40
2022-08-22T19:12:44.825Z,1.38
2022-08-22T19:15:33.375Z,1.40
2022-08-22T19:18:34.312Z,1.10
2022-08-22T19:21:39.729Z,1.40
2022-08-22T19:24:11.047Z,1.52
2022-08-22T19:26:42.626Z,1.30
2022-08-22T19:29:47.803Z,1.77
2022-08-22T19:32:49.891Z,1.45
2022-08-22T19:35:21.966Z,1.45
2022-08-22T19:40:50.112Z,1.35
2022-08-22T19:43:24.964Z,1.10
2022-08-22T19:45:55.825Z,1.42
2022-08-22T19:48:31.398Z,1.52
2022-08-22T19:51:12.684Z,1.70
2022-08-22T19:53:51.865Z,1.73
2022-08-22T19:56:33.229Z,1.80
2022-08-22T19:59:15.116Z,1.77
2022-08-22T20:01:56.129Z,1.55
2022-08-22T20:04:50.422Z,1.60
2022-08-22T20:07:29.948Z,1.40
2022-08-22T20:10:09.939Z,1.67
2022-08-22T20:12:57.163Z,1.38
2022-08-22T20:15:29.842Z,1.55
2022-08-22T20:18:47.302Z,1.60
2022-08-22T20:21:00.307Z,1.52
2022-08-22T20:23:31.520Z,1.63
2022-08-22T20:26:01.100Z,1.70
2022-08-22T20:28:35.169Z,1.70
2022-08-22T20:31:05.250Z,1.60
2022-08-22T20:33:36.455Z,1.60
2022-08-22T20:36:27.250Z,1.75
2022-08-22T20:41:32.735Z,1.50
2022-08-22T20:44:11.082Z,1.50
2022-08-22T20:46:53.449Z,1.50
2022-08-22T20:49:24.649Z,1.58
2022-08-22T20:51:57.189Z,1.80
2022-08-22T20:54:27.220Z,1.77
2022-08-22T20:56:58.526Z,1.80
2022-08-22T20:59:30.533Z,1.67
2022-08-22T21:02:04.709Z,1.70
2022-08-22T21:04:42.662Z,1.73
2022-08-22T21:07:10.856Z,1.92
2022-08-22T21:09:56.257Z,1.60
2022-08-22T21:12:26.363Z,1.50
2022-08-22T21:14:54.290Z,1.75
2022-08-22T21:17:29.071Z,1.90
2022-08-22T21:20:17.457Z,1.67
2022-08-22T21:22:45.297Z,1.60
2022-08-22T21:25:13.157Z,1.90
2022-08-22T21:27:49.362Z,1.77
2022-08-22T21:30:26.159Z,1.70
2022-08-22T21:32:56.287Z,2.08
2022-08-22T21:35:29.038Z,2.20
2022-08-22T21:37:58.104Z,2.20
2022-08-22T21:40:32.372Z,1.85
2022-08-22T21:43:05.524Z,2.08
2022-08-22T21:45:35.568Z,1.75
2022-08-22T21:48:05.953Z,2.25
2022-08-22T21:50:40.871Z,2.08
2022-08-22T21:53:12.124Z,2.05
2022-08-22T21:55:44.493Z,1.95
2022-08-22T21:58:35.831Z,2.28
2022-08-22T22:01:30.323Z,1.88
2022-08-22T22:03:59.349Z,2.17
2022-08-22T22:06:27.949Z,1.92
2022-08-22T22:08:56.022Z,2.00
2022-08-22T22:11:23.910Z,1.70
2022-08-22T22:13:51.892Z,1.60
2022-08-22T22:16:25.594Z,1.80
2022-08-22T22:18:55.275Z,1.95
2022-08-22T22:21:24.145Z,2.05
2022-08-22T22:23:52.457Z,1.80
2022-08-22T22:26:20.935Z,1.75
2022-08-22T22:28:51.185Z,1.85
2022-08-22T22:31:21.886Z,1.85
2022-08-22T22:33:49.952Z,1.92
2022-08-22T22:36:21.645Z,2.00
2022-08-22T22:38:51.648Z,2.10
2022-08-22T22:41:21.193Z,1.90
2022-08-22T22:43:48.969Z,1.83
2022-08-22T22:46:19.419Z,1.90
2022-08-22T22:48:47.223Z,2.05
2022-08-22T22:51:18.132Z,1.88
2022-08-22T22:53:47.503Z,1.80
2022-08-22T22:56:18.083Z,1.88
2022-08-22T22:58:50.836Z,2.00
2022-08-22T23:01:32.596Z,2.00
2022-08-22T23:04:05.596Z,2.35
2022-08-22T23:06:35.140Z,2.15
2022-08-22T23:09:06.716Z,1.70
2022-08-22T23:11:35.666Z,2.03
2022-08-22T23:14:03.797Z,1.90
2022-08-22T23:16:36.628Z,1.95
2022-08-22T23:19:11.681Z,1.90
2022-08-22T23:21:40.583Z,2.00
2022-08-22T23:24:09.991Z,2.15
2022-08-22T23:26:38.617Z,2.10
2022-08-22T23:29:07.303Z,2.20
2022-08-22T23:31:37.972Z,2.40
2022-08-22T23:34:08.735Z,2.25
2022-08-22T23:36:37.221Z,2.05
2022-08-22T23:39:07.716Z,2.45
2022-08-22T23:41:38.626Z,2.10
2022-08-22T23:44:13.490Z,2.00
2022-08-22T23:46:42.239Z,2.40
2022-08-22T23:49:13.606Z,2.45
2022-08-22T23:51:44.424Z,2.30
2022-08-22T23:54:12.616Z,2.15
2022-08-22T23:56:51.092Z,2.30
2022-08-22T23:59:24.954Z,2.15
